Time;durP1;ratioP1;P1;durP2;ratioP2;P2;SDS_P1;SDS_P2;PMS_P1;PMS_P2;Temp;Humidity;BMP_temperature;BMP_pressure;BME280_temperature;BME280_humidity;BME280_pressure;Samples;Min_cycle;Max_cycle;Signal;HPM_P1;HPM_P2
2022/12/05 07:05:02;;;;;;;19.03;15.77;;;18.60;53.50;;;;;;5150843;27;20268;-65
2022/12/05 07:07:31;;;;;;;23.17;16.83;;;13.40;48.20;;;;;;5150766;27;20222;-64
2022/12/05 07:09:59;;;;;;;33.13;25.43;;;9.50;55.10;;;;;;5150689;27;20186;-68
2022/12/05 07:12:28;;;;;;;30.13;21.30;;;7.70;61.80;;;;;;5150699;27;20981;-67
2022/12/05 07:14:56;;;;;;;30.60;21.77;;;6.40;67.90;;;;;;5150794;27;20723;-69
2022/12/05 07:17:25;;;;;;;33.27;23.77;;;5.60;73.80;;;;;;5150638;27;20187;-74
2022/12/05 07:19:53;;;;;;;25.60;17.90;;;5.10;80.50;;;;;;5150484;27;20209;-65
2022/12/05 07:22:24;;;;;;;37.10;27.43;;;4.80;86.90;;;;;;5148530;27;20202;-76
2022/12/05 07:24:53;;;;;;;31.07;22.57;;;4.40;91.80;;;;;;5150395;27;20229;-81
2022/12/05 07:27:22;;;;;;;31.23;19.63;;;4.40;95.00;;;;;;5150861;27;20204;-70
2022/12/05 07:29:54;;;;;;;26.23;17.63;;;4.40;96.70;;;;;;5159831;27;20248;-65
2022/12/05 07:32:23;;;;;;;31.17;19.37;;;4.20;98.60;;;;;;5171648;27;20186;-70
2022/12/05 07:34:51;;;;;;;27.60;17.73;;;4.10;99.90;;;;;;5171442;27;20280;-68
2022/12/05 07:37:24;;;;;;;25.30;16.97;;;4.10;99.90;;;;;;5171079;27;20199;-68
2022/12/05 07:39:52;;;;;;;23.73;15.57;;;3.60;99.90;;;;;;5171275;27;20684;-69
2022/12/05 07:42:21;;;;;;;29.27;17.67;;;3.40;99.90;;;;;;5171201;27;20197;-66
2022/12/05 07:44:49;;;;;;;33.17;17.83;;;3.50;99.90;;;;;;5171402;27;20222;-67
2022/12/05 07:47:17;;;;;;;30.87;20.03;;;3.50;99.90;;;;;;5171274;27;20197;-65
2022/12/05 07:49:46;;;;;;;35.57;21.83;;;3.60;99.90;;;;;;5171182;27;20207;-65
2022/12/05 07:52:14;;;;;;;26.27;17.50;;;3.50;99.90;;;;;;5170591;27;20542;-65
2022/12/05 07:54:44;;;;;;;29.47;18.77;;;3.40;99.90;;;;;;5158723;27;20197;-74
2022/12/05 07:57:12;;;;;;;30.40;18.90;;;3.50;99.90;;;;;;5143506;27;20218;-74
2022/12/05 07:59:40;;;;;;;39.37;24.47;;;3.60;99.90;;;;;;5145372;27;20200;-65
2022/12/05 08:02:10;;;;;;;38.40;22.67;;;3.60;99.90;;;;;;5150277;27;20196;-78
2022/12/05 08:04:38;;;;;;;27.00;16.73;;;3.60;99.90;;;;;;5145094;27;20601;-72
2022/12/05 08:07:09;;;;;;;63.03;32.97;;;3.60;99.90;;;;;;5148203;27;20207;-65
2022/12/05 08:09:37;;;;;;;28.93;17.83;;;3.30;99.90;;;;;;5149976;27;20226;-68
2022/12/05 08:12:08;;;;;;;35.93;22.17;;;3.10;99.90;;;;;;5150072;27;20267;-66
2022/12/05 08:14:36;;;;;;;29.03;17.37;;;3.10;99.90;;;;;;5129483;27;20226;-70
2022/12/05 08:17:05;;;;;;;50.00;27.67;;;3.10;99.90;;;;;;5115699;28;20194;-65
2022/12/05 08:19:33;;;;;;;48.10;28.77;;;3.30;99.90;;;;;;5115354;28;20245;-65
2022/12/05 08:22:01;;;;;;;49.80;28.27;;;3.30;99.90;;;;;;5114932;28;20190;-69
2022/12/05 08:24:30;;;;;;;32.67;20.53;;;3.40;99.90;;;;;;5115405;28;20233;-65
2022/12/05 08:26:58;;;;;;;37.57;20.47;;;3.40;99.90;;;;;;5115432;28;20197;-73
2022/12/05 08:29:28;;;;;;;30.90;18.93;;;3.30;99.90;;;;;;5126671;27;20271;-66
2022/12/05 08:31:56;;;;;;;38.57;22.43;;;3.20;99.90;;;;;;5135459;27;20276;-66
2022/12/05 08:34:24;;;;;;;46.37;25.17;;;3.20;99.90;;;;;;5135761;27;20215;-66
2022/12/05 08:36:53;;;;;;;39.33;21.83;;;3.40;99.90;;;;;;5135319;27;20279;-65
2022/12/05 08:39:21;;;;;;;39.17;23.53;;;3.30;99.90;;;;;;5135525;27;20189;-78
2022/12/05 08:41:49;;;;;;;38.10;21.77;;;3.40;99.90;;;;;;5135753;27;20198;-65
2022/12/05 08:44:18;;;;;;;38.07;23.43;;;3.30;99.90;;;;;;5135321;27;20217;-66
2022/12/05 08:46:50;;;;;;;36.03;20.17;;;3.30;99.90;;;;;;5117052;27;20211;-66
2022/12/05 08:49:18;;;;;;;32.63;19.97;;;3.40;99.90;;;;;;5134883;27;20231;-65
2022/12/05 08:51:47;;;;;;;34.93;20.47;;;3.40;99.90;;;;;;5117164;27;20209;-65
2022/12/05 08:54:15;;;;;;;34.80;22.53;;;3.40;99.90;;;;;;5135500;27;20196;-65
2022/12/05 08:56:44;;;;;;;72.03;43.90;;;3.40;99.90;;;;;;5135350;27;20257;-66
2022/12/05 08:59:12;;;;;;;79.50;40.60;;;3.30;99.90;;;;;;5135018;27;20217;-65
2022/12/05 09:01:41;;;;;;;51.33;27.97;;;3.50;99.90;;;;;;5134877;27;20574;-65
2022/12/05 09:04:11;;;;;;;41.43;22.37;;;3.50;99.90;;;;;;5129878;27;20220;-65
2022/12/05 09:06:40;;;;;;;39.10;21.77;;;3.40;99.90;;;;;;5132865;27;20197;-80
2022/12/05 09:09:10;;;;;;;85.93;38.97;;;3.10;99.90;;;;;;5115943;27;20196;-65
2022/12/05 09:11:47;;;;;;;120.33;48.67;;;3.10;99.90;;;;;;5114521;28;20245;-66
2022/12/05 09:14:16;;;;;;;56.60;31.63;;;3.40;99.90;;;;;;5114120;28;20190;-67
2022/12/05 09:16:46;;;;;;;97.20;42.47;;;3.40;99.90;;;;;;5114354;28;20220;-66
2022/12/05 09:19:19;;;;;;;46.50;24.27;;;3.40;99.90;;;;;;5122779;27;20189;-65
2022/12/05 09:21:47;;;;;;;55.07;28.27;;;3.30;99.90;;;;;;5134846;27;20716;-66
2022/12/05 09:24:16;;;;;;;43.63;24.53;;;3.30;99.90;;;;;;5143712;27;20234;-65
2022/12/05 09:26:44;;;;;;;39.17;23.43;;;3.40;99.90;;;;;;5154291;27;20203;-67
2022/12/05 09:29:13;;;;;;;37.07;21.97;;;3.20;99.90;;;;;;5155106;27;20192;-70
2022/12/05 09:31:45;;;;;;;33.50;18.60;;;3.10;99.90;;;;;;5137033;27;20207;-65
2022/12/05 09:34:16;;;;;;;31.33;17.97;;;3.00;99.90;;;;;;5133726;27;20232;-70
2022/12/05 09:36:50;;;;;;;33.17;18.73;;;2.90;99.90;;;;;;5134587;27;20189;-65
2022/12/05 09:39:23;;;;;;;33.77;18.87;;;2.80;99.90;;;;;;5132279;27;20657;-68
2022/12/05 09:42:07;;;;;;;31.93;18.43;;;2.70;99.90;;;;;;5124985;27;20197;-67
2022/12/05 09:44:49;;;;;;;29.30;16.97;;;2.80;99.90;;;;;;5127432;27;20226;-72
2022/12/05 09:47:40;;;;;;;31.03;17.33;;;2.80;99.90;;;;;;5134034;27;20199;-77
2022/12/05 09:50:18;;;;;;;30.63;17.10;;;2.80;99.90;;;;;;5134441;27;20204;-66
2022/12/05 09:52:57;;;;;;;30.83;17.57;;;2.80;99.90;;;;;;5134227;27;20666;-66
2022/12/05 09:55:27;;;;;;;36.37;19.47;;;2.70;99.90;;;;;;5125490;27;20287;-65
2022/12/05 09:57:58;;;;;;;34.20;20.03;;;2.60;99.90;;;;;;5127071;27;20224;-64
2022/12/05 10:00:29;;;;;;;31.73;18.80;;;2.50;99.90;;;;;;5147513;27;20179;-67
2022/12/05 10:03:18;;;;;;;31.73;18.03;;;2.60;99.90;;;;;;5122402;27;20318;-66
2022/12/05 10:05:54;;;;;;;30.77;18.27;;;2.60;99.90;;;;;;5113613;28;20330;-65
2022/12/05 10:08:28;;;;;;;33.27;17.67;;;2.80;99.90;;;;;;5113317;28;20236;-67
2022/12/05 10:11:02;;;;;;;34.00;21.17;;;2.70;99.90;;;;;;5113313;28;20229;-68
2022/12/05 10:13:44;;;;;;;41.93;22.27;;;2.70;99.90;;;;;;5113397;28;20197;-66
2022/12/05 10:16:18;;;;;;;35.57;17.80;;;2.70;99.90;;;;;;5115630;27;20199;-66
2022/12/05 10:18:53;;;;;;;35.47;17.43;;;2.50;99.90;;;;;;5121954;27;20230;-66
2022/12/05 10:21:28;;;;;;;41.03;20.73;;;2.40;99.90;;;;;;5140415;27;20208;-70
2022/12/05 10:23:59;;;;;;;32.40;18.97;;;2.40;99.90;;;;;;5154411;27;20223;-75
2022/12/05 10:26:30;;;;;;;28.40;16.90;;;2.40;99.90;;;;;;5154176;27;20317;-75
2022/12/05 10:29:11;;;;;;;33.23;18.57;;;2.30;99.90;;;;;;5153627;27;20198;-75
2022/12/05 10:31:41;;;;;;;31.67;19.43;;;2.30;99.90;;;;;;5153687;27;20278;-70
2022/12/05 10:34:16;;;;;;;39.27;19.83;;;2.30;99.90;;;;;;5153525;27;20198;-73
2022/12/05 10:36:55;;;;;;;32.27;18.27;;;2.30;99.90;;;;;;5153915;27;20308;-73
2022/12/05 10:39:23;;;;;;;26.67;16.03;;;2.30;99.90;;;;;;5153255;27;20273;-81
2022/12/05 10:41:51;;;;;;;32.33;18.67;;;2.50;99.90;;;;;;5153625;27;20234;-81
2022/12/05 10:44:20;;;;;;;32.53;17.97;;;2.40;99.90;;;;;;5153166;27;20194;-73
2022/12/05 10:46:48;;;;;;;37.50;20.57;;;2.40;99.90;;;;;;5153720;27;20224;-67
2022/12/05 10:49:19;;;;;;;30.93;18.17;;;2.40;99.90;;;;;;5153432;27;20220;-71
2022/12/05 10:51:50;;;;;;;35.43;20.90;;;2.40;99.90;;;;;;5153292;27;20200;-67
2022/12/05 10:54:22;;;;;;;34.43;19.43;;;2.40;99.90;;;;;;5153340;27;20198;-67
2022/12/05 10:56:52;;;;;;;34.33;19.77;;;2.40;99.90;;;;;;5153380;27;20192;-75
2022/12/05 10:59:21;;;;;;;31.33;17.73;;;2.60;99.90;;;;;;5153457;27;20605;-75
2022/12/05 11:01:52;;;;;;;32.70;19.13;;;2.50;99.90;;;;;;5153409;27;20203;-85
2022/12/05 11:04:24;;;;;;;34.20;20.40;;;2.50;99.90;;;;;;5152970;27;20226;-73
2022/12/05 11:06:57;;;;;;;35.07;20.87;;;2.50;99.90;;;;;;5153179;27;20220;-75
2022/12/05 11:09:28;;;;;;;36.73;19.67;;;2.70;99.90;;;;;;5153276;27;20207;-67
2022/12/05 11:12:19;;;;;;;31.70;19.20;;;2.70;99.90;;;;;;5153008;27;20198;-77
2022/12/05 11:15:02;;;;;;;35.67;19.77;;;2.50;99.90;;;;;;5153006;27;20651;-67
2022/12/05 11:17:33;;;;;;;40.83;21.77;;;2.50;99.90;;;;;;5126766;27;20207;-73
2022/12/05 11:20:04;;;;;;;36.63;20.63;;;2.40;99.90;;;;;;5128968;28;20199;-75
2022/12/05 11:22:36;;;;;;;44.87;24.30;;;2.40;99.90;;;;;;5111748;28;20223;-74
2022/12/05 11:25:25;;;;;;;35.27;20.50;;;2.60;99.90;;;;;;5122270;28;20309;-66
2022/12/05 11:27:53;;;;;;;41.17;23.17;;;2.70;99.90;;;;;;5131827;28;20204;-69
2022/12/05 11:30:29;;;;;;;48.07;24.13;;;2.70;99.90;;;;;;5144520;27;20583;-66
2022/12/05 11:33:12;;;;;;;50.33;26.03;;;2.80;99.90;;;;;;5152911;27;20256;-65
2022/12/05 11:35:41;;;;;;;46.50;25.13;;;2.90;99.90;;;;;;5152895;27;20719;-71
2022/12/05 11:38:12;;;;;;;77.17;34.77;;;2.90;99.90;;;;;;5152823;27;20247;-68
2022/12/05 11:40:53;;;;;;;56.33;28.90;;;3.00;99.90;;;;;;5152802;27;20207;-72
2022/12/05 11:43:47;;;;;;;74.77;34.73;;;3.00;99.90;;;;;;5152743;27;20208;-69
2022/12/05 11:46:26;;;;;;;43.63;24.90;;;3.10;99.90;;;;;;5152419;27;21126;-67
2022/12/05 11:49:08;;;;;;;38.93;21.97;;;2.90;99.90;;;;;;5152899;27;20246;-67
2022/12/05 11:51:40;;;;;;;52.60;28.23;;;2.90;99.90;;;;;;5156100;27;20286;-68
2022/12/05 11:54:34;;;;;;;37.67;20.77;;;2.80;99.90;;;;;;5156480;27;20201;-65
2022/12/05 11:57:36;;;;;;;43.73;23.40;;;2.60;99.90;;;;;;5156553;27;20312;-69
2022/12/05 12:00:16;;;;;;;36.63;21.33;;;2.60;99.90;;;;;;5156221;27;20618;-70
2022/12/05 12:03:10;;;;;;;41.10;21.20;;;2.60;99.90;;;;;;5146742;27;20236;-74
2022/12/05 12:05:44;;;;;;;40.07;20.80;;;2.60;99.90;;;;;;5085344;28;20232;-74
2022/12/05 12:08:21;;;;;;;44.60;22.60;;;2.60;99.90;;;;;;5094403;28;20238;-70
2022/12/05 12:11:03;;;;;;;42.27;20.77;;;2.50;99.90;;;;;;5089969;28;20194;-65
2022/12/05 12:13:54;;;;;;;46.20;21.60;;;2.30;99.90;;;;;;5090408;28;20283;-67
2022/12/05 12:16:34;;;;;;;42.80;20.57;;;2.40;99.90;;;;;;5094647;28;20197;-66
2022/12/05 12:19:24;;;;;;;39.07;19.90;;;2.30;99.90;;;;;;5092451;28;20184;-66
2022/12/05 12:22:12;;;;;;;35.37;19.07;;;2.40;99.90;;;;;;5094867;28;20682;-66
2022/12/05 12:25:03;;;;;;;38.73;20.83;;;2.20;99.90;;;;;;5094239;28;20619;-65
2022/12/05 12:27:43;;;;;;;36.17;21.20;;;2.10;99.90;;;;;;5094152;28;20301;-68
2022/12/05 12:30:17;;;;;;;38.00;21.17;;;2.30;99.90;;;;;;5094139;28;20192;-66
2022/12/05 12:32:58;;;;;;;35.93;18.90;;;2.40;99.90;;;;;;5093375;28;20210;-70
2022/12/05 12:35:31;;;;;;;28.80;17.33;;;2.60;99.90;;;;;;5094801;28;20334;-65
2022/12/05 12:38:16;;;;;;;30.80;18.47;;;2.40;99.90;;;;;;5094427;28;20275;-66
2022/12/05 12:40:49;;;;;;;32.30;19.53;;;2.30;99.90;;;;;;5093850;28;20302;-66
2022/12/05 12:43:44;;;;;;;33.97;19.07;;;2.30;99.90;;;;;;5092010;28;20242;-70
2022/12/05 12:46:32;;;;;;;37.70;19.00;;;2.30;99.90;;;;;;5094445;28;20221;-68
2022/12/05 12:49:18;;;;;;;42.07;20.67;;;2.30;99.90;;;;;;5094278;28;20199;-66
2022/12/05 12:51:51;;;;;;;33.57;19.43;;;2.40;99.90;;;;;;5094854;28;20624;-66
2022/12/05 12:54:46;;;;;;;32.47;19.70;;;2.40;99.90;;;;;;5093494;28;20194;-65
2022/12/05 12:57:38;;;;;;;38.83;21.57;;;2.40;99.90;;;;;;5093038;28;20200;-65
2022/12/05 13:00:22;;;;;;;35.90;20.50;;;2.50;99.90;;;;;;5092887;28;20314;-67
2022/12/05 13:02:54;;;;;;;45.53;23.60;;;2.50;99.90;;;;;;5093668;28;20202;-67
2022/12/05 13:05:31;;;;;;;38.77;21.73;;;2.40;99.90;;;;;;5131718;27;20274;-70
2022/12/05 13:08:05;;;;;;;41.37;22.10;;;2.40;99.90;;;;;;5134789;27;20543;-67
2022/12/05 13:10:39;;;;;;;45.80;23.53;;;2.30;99.90;;;;;;5134751;27;20195;-65
2022/12/05 13:13:12;;;;;;;50.37;27.80;;;2.30;99.90;;;;;;5135134;27;20194;-70
2022/12/05 13:15:46;;;;;;;44.23;24.40;;;2.40;99.90;;;;;;5134227;27;20278;-80
2022/12/05 13:18:17;;;;;;;38.93;21.60;;;2.60;99.90;;;;;;5134336;27;20275;-65
2022/12/05 13:20:49;;;;;;;39.77;22.33;;;2.40;99.90;;;;;;5134166;27;20252;-74
2022/12/05 13:23:21;;;;;;;37.83;20.43;;;2.40;99.90;;;;;;5132040;27;20288;-69
2022/12/05 13:25:51;;;;;;;45.53;22.47;;;2.20;99.90;;;;;;5121395;27;20286;-66
2022/12/05 13:28:28;;;;;;;41.93;21.83;;;2.20;99.90;;;;;;5122891;27;20637;-66
2022/12/05 13:31:02;;;;;;;50.33;26.13;;;2.30;99.90;;;;;;5154995;27;20337;-67
2022/12/05 13:33:34;;;;;;;42.83;22.20;;;2.40;99.90;;;;;;5154726;27;20544;-71
2022/12/05 13:44:41;;;;;;;49.17;25.00;;;2.60;99.90;;;;;;5138898;27;20194;-71
2022/12/05 13:47:25;;;;;;;43.30;21.83;;;2.60;99.90;;;;;;5154296;27;20250;-71
2022/12/05 13:49:59;;;;;;;42.27;23.03;;;2.50;99.90;;;;;;5154425;27;20299;-73
2022/12/05 13:52:31;;;;;;;40.73;22.17;;;2.50;99.90;;;;;;5139853;27;20201;-75
2022/12/05 13:55:09;;;;;;;44.83;24.33;;;2.50;99.90;;;;;;5138117;27;20191;-73
2022/12/05 13:57:53;;;;;;;44.87;24.17;;;2.40;99.90;;;;;;5133052;27;20184;-67
2022/12/05 14:00:28;;;;;;;46.53;22.70;;;2.60;99.90;;;;;;5133120;27;20205;-67
2022/12/05 14:03:02;;;;;;;48.33;23.60;;;2.60;99.90;;;;;;5120809;27;20249;-88
2022/12/05 14:05:42;;;;;;;51.30;24.23;;;2.60;99.90;;;;;;5132311;27;20199;-74
2022/12/05 14:08:47;;;;;;;46.57;24.97;;;2.60;99.90;;;;;;5132848;27;20249;-69
2022/12/05 14:11:16;;;;;;;57.00;27.90;;;2.60;99.90;;;;;;5132767;27;20208;-66
2022/12/05 14:13:45;;;;;;;56.73;28.67;;;2.60;99.90;;;;;;5131986;27;20199;-74
2022/12/05 14:16:43;;;;;;;55.03;29.47;;;2.60;99.90;;;;;;5128412;27;20282;-66
2022/12/05 14:19:47;;;;;;;47.97;25.07;;;2.70;99.90;;;;;;5053020;28;20686;-76
2022/12/05 14:22:37;;;;;;;52.70;26.43;;;2.60;99.90;;;;;;5048908;28;20206;-66
2022/12/05 14:25:22;;;;;;;54.33;29.03;;;2.50;99.90;;;;;;5046877;28;20210;-67
2022/12/05 14:27:55;;;;;;;50.33;26.33;;;2.60;99.90;;;;;;5068678;28;20256;-69
2022/12/05 14:30:29;;;;;;;48.53;26.50;;;2.50;99.90;;;;;;5068451;28;20244;-68
2022/12/05 14:33:01;;;;;;;52.73;27.53;;;2.50;99.90;;;;;;5068466;28;20205;-67
2022/12/05 14:35:40;;;;;;;52.40;27.60;;;2.50;99.90;;;;;;5068611;28;20209;-68
2022/12/05 14:38:22;;;;;;;55.87;27.50;;;2.40;99.90;;;;;;5068572;28;20296;-69
2022/12/05 14:40:50;;;;;;;55.67;27.13;;;2.40;99.90;;;;;;5068645;28;20208;-67
2022/12/05 14:43:21;;;;;;;54.10;26.70;;;2.40;99.90;;;;;;5068296;28;20224;-74
2022/12/05 14:45:59;;;;;;;48.53;27.23;;;2.40;99.90;;;;;;5068020;28;20201;-68
2022/12/05 14:48:31;;;;;;;56.10;29.17;;;2.30;99.90;;;;;;5068218;28;20251;-70
2022/12/05 14:51:02;;;;;;;50.97;27.63;;;2.40;99.90;;;;;;5067033;28;20339;-67
2022/12/05 14:53:41;;;;;;;62.17;28.83;;;2.40;99.90;;;;;;5054733;28;20213;-66
2022/12/05 14:56:16;;;;;;;49.33;25.33;;;2.40;99.90;;;;;;5110250;27;20209;-67
2022/12/05 14:58:54;;;;;;;48.37;25.83;;;2.40;99.90;;;;;;5131600;27;20199;-68
2022/12/05 15:01:26;;;;;;;63.23;29.97;;;2.40;99.90;;;;;;5131715;27;20295;-67
2022/12/05 15:04:16;;;;;;;53.67;25.73;;;2.50;99.90;;;;;;5131104;28;20277;-67
2022/12/05 15:06:52;;;;;;;71.57;34.00;;;2.50;99.90;;;;;;5131350;28;20264;-67
2022/12/05 15:09:45;;;;;;;46.37;24.87;;;2.50;99.90;;;;;;5131697;28;20679;-70
2022/12/05 15:12:18;;;;;;;52.63;26.30;;;2.30;99.90;;;;;;5128583;28;20239;-67
2022/12/05 15:14:56;;;;;;;49.73;25.50;;;2.30;99.90;;;;;;5131327;28;20286;-67
2022/12/05 15:17:30;;;;;;;44.93;25.03;;;2.30;99.90;;;;;;5131230;28;20202;-66
2022/12/05 15:20:05;;;;;;;45.47;25.60;;;2.30;99.90;;;;;;5131507;28;20195;-68
2022/12/05 15:22:37;;;;;;;51.77;27.40;;;2.40;99.90;;;;;;5131723;28;20270;-75
2022/12/05 15:25:26;;;;;;;49.63;26.53;;;2.50;99.90;;;;;;5132452;27;20205;-76
2022/12/05 15:28:04;;;;;;;51.83;28.83;;;2.60;99.90;;;;;;5135775;27;20317;-70
2022/12/05 15:30:36;;;;;;;44.07;23.67;;;2.70;99.90;;;;;;5135527;27;20190;-67
2022/12/05 15:33:05;;;;;;;43.47;26.00;;;2.60;99.90;;;;;;5135511;27;20196;-67
2022/12/05 15:35:35;;;;;;;53.50;27.50;;;2.50;99.90;;;;;;5116405;27;20198;-68
2022/12/05 15:38:13;;;;;;;50.60;26.00;;;2.60;99.90;;;;;;5135398;27;20325;-77
2022/12/05 15:40:46;;;;;;;58.43;30.27;;;2.50;99.90;;;;;;5135367;27;20651;-83
2022/12/05 15:43:29;;;;;;;47.67;26.07;;;2.70;99.90;;;;;;5135337;27;20816;-72
2022/12/05 15:46:22;;;;;;;61.63;31.27;;;2.60;99.90;;;;;;5127953;27;20197;-78
2022/12/05 15:48:51;;;;;;;48.17;26.97;;;2.70;99.90;;;;;;5114445;28;20643;-78
2022/12/05 15:51:23;;;;;;;56.47;29.27;;;2.80;99.90;;;;;;5114491;28;20665;-80
2022/12/05 15:53:59;;;;;;;48.27;28.23;;;2.80;99.90;;;;;;5114948;28;20221;-86
2022/12/05 15:56:30;;;;;;;45.33;27.10;;;2.80;99.90;;;;;;5126321;27;20285;-72
2022/12/05 15:59:04;;;;;;;55.33;30.10;;;2.70;99.90;;;;;;5135218;27;20663;-80
2022/12/05 16:01:38;;;;;;;58.50;29.03;;;2.60;99.90;;;;;;5134978;27;20684;-83
2022/12/05 16:04:16;;;;;;;52.40;27.80;;;2.70;99.90;;;;;;5133152;27;20683;-73
2022/12/05 16:06:48;;;;;;;51.47;30.40;;;2.70;99.90;;;;;;5114264;28;20218;-80
2022/12/05 16:09:20;;;;;;;49.03;26.57;;;2.80;99.90;;;;;;5114274;28;20238;-80
2022/12/05 16:11:54;;;;;;;48.53;27.13;;;2.70;99.90;;;;;;5114268;28;20273;-77
2022/12/05 16:14:25;;;;;;;51.33;28.50;;;2.60;99.90;;;;;;5124992;27;20210;-67
2022/12/05 16:17:15;;;;;;;62.57;31.00;;;2.60;99.90;;;;;;5114452;27;20189;-77
2022/12/05 16:19:44;;;;;;;51.40;26.90;;;2.50;99.90;;;;;;5106961;27;20207;-76
2022/12/05 16:22:21;;;;;;;49.73;24.67;;;2.50;99.90;;;;;;5144352;27;20186;-76
2022/12/05 16:24:59;;;;;;;52.60;27.63;;;2.50;99.90;;;;;;5154907;27;20948;-81
2022/12/05 16:27:30;;;;;;;50.30;26.13;;;2.50;99.90;;;;;;5134231;27;20211;-83
2022/12/05 16:30:18;;;;;;;51.13;27.60;;;2.50;99.90;;;;;;5134307;27;20545;-78
2022/12/05 16:32:48;;;;;;;57.60;30.53;;;2.50;99.90;;;;;;5134135;27;20681;-74
2022/12/05 16:35:32;;;;;;;49.47;26.67;;;2.50;99.90;;;;;;5133737;27;20255;-71
2022/12/05 16:38:18;;;;;;;55.00;27.87;;;2.50;99.90;;;;;;5134312;27;20241;-66
2022/12/05 16:40:59;;;;;;;61.73;31.60;;;2.50;99.90;;;;;;5134234;27;20204;-66
2022/12/05 16:43:42;;;;;;;56.57;28.70;;;2.40;99.90;;;;;;5134120;27;20206;-66
2022/12/05 16:46:45;;;;;;;51.17;27.67;;;2.40;99.90;;;;;;5133893;27;20570;-74
2022/12/05 16:49:35;;;;;;;56.67;28.03;;;2.40;99.90;;;;;;5033365;28;20231;-68
2022/12/05 16:52:13;;;;;;;82.90;40.77;;;2.50;99.90;;;;;;4988648;28;20322;-67
2022/12/05 16:54:47;;;;;;;70.90;37.60;;;2.60;99.90;;;;;;4991857;28;20204;-66
2022/12/05 16:57:18;;;;;;;46.87;26.83;;;2.80;99.90;;;;;;4991268;28;20232;-77
2022/12/05 16:59:48;;;;;;;44.60;23.97;;;2.60;99.90;;;;;;4991444;28;20614;-66
2022/12/05 17:02:18;;;;;;;87.47;45.93;;;2.50;99.90;;;;;;4990993;28;20284;-66
2022/12/05 17:04:46;;;;;;;52.73;26.40;;;2.50;99.90;;;;;;4974153;28;20256;-66
2022/12/05 17:07:15;;;;;;;50.70;26.77;;;2.50;99.90;;;;;;4990815;28;20760;-66
2022/12/05 17:09:43;;;;;;;70.60;33.17;;;2.70;99.90;;;;;;4990669;28;20236;-74
2022/12/05 17:12:15;;;;;;;55.77;27.73;;;2.80;99.90;;;;;;4990886;28;20203;-66
2022/12/05 17:14:46;;;;;;;48.57;26.93;;;2.90;99.90;;;;;;4990468;28;20242;-74
2022/12/05 17:17:16;;;;;;;45.97;25.73;;;3.00;99.90;;;;;;4990553;28;20221;-70
2022/12/05 17:19:45;;;;;;;51.00;26.70;;;2.90;99.90;;;;;;5016228;28;20566;-67
2022/12/05 17:22:15;;;;;;;45.53;23.87;;;2.90;99.90;;;;;;5076963;28;20305;-66
2022/12/05 17:24:45;;;;;;;50.97;26.07;;;2.90;99.90;;;;;;5080878;28;20281;-78
2022/12/05 17:27:13;;;;;;;50.93;26.77;;;2.90;99.90;;;;;;5089996;28;20194;-67
2022/12/05 17:29:42;;;;;;;49.00;26.00;;;2.80;99.90;;;;;;5125268;27;20218;-66
2022/12/05 17:32:11;;;;;;;50.00;26.20;;;2.90;99.90;;;;;;5151648;27;20198;-67
2022/12/05 17:34:39;;;;;;;50.93;27.43;;;3.00;99.90;;;;;;5153498;27;20198;-74
2022/12/05 17:37:08;;;;;;;47.30;26.40;;;2.90;99.90;;;;;;5153757;27;20203;-67
2022/12/05 17:39:36;;;;;;;49.73;25.37;;;2.80;99.90;;;;;;5153876;27;20196;-66
2022/12/05 17:42:04;;;;;;;53.73;28.47;;;2.70;99.90;;;;;;5153850;27;20198;-66
2022/12/05 17:44:33;;;;;;;56.07;29.67;;;2.80;99.90;;;;;;5153651;27;20210;-68
2022/12/05 17:47:01;;;;;;;51.57;27.13;;;2.90;99.90;;;;;;5153303;27;20225;-70
2022/12/05 17:49:36;;;;;;;46.93;25.67;;;2.90;99.90;;;;;;5127003;27;20223;-73
2022/12/05 17:52:04;;;;;;;50.17;26.90;;;3.00;99.90;;;;;;5127464;27;20191;-66
2022/12/05 17:54:48;;;;;;;49.63;27.03;;;2.80;99.90;;;;;;5132543;27;20204;-73
2022/12/05 17:57:17;;;;;;;51.90;27.13;;;2.90;99.90;;;;;;5132752;27;20196;-66
2022/12/05 17:59:45;;;;;;;46.53;26.80;;;2.90;99.90;;;;;;5131441;27;20562;-74
2022/12/05 18:02:14;;;;;;;51.83;25.70;;;2.90;99.90;;;;;;5124618;27;20662;-68
2022/12/05 18:04:44;;;;;;;51.47;26.87;;;3.00;99.90;;;;;;5111552;28;20228;-71
2022/12/05 18:07:13;;;;;;;48.83;28.97;;;3.00;99.90;;;;;;5112075;28;20589;-74
2022/12/05 18:09:42;;;;;;;58.20;32.03;;;3.00;99.90;;;;;;5111648;28;20272;-75
2022/12/05 18:12:10;;;;;;;56.17;31.10;;;3.10;99.90;;;;;;5120409;27;20196;-66
2022/12/05 18:14:39;;;;;;;48.83;26.67;;;3.20;99.90;;;;;;5132222;27;20208;-67
2022/12/05 18:17:07;;;;;;;47.43;26.87;;;3.30;99.90;;;;;;5132270;27;20267;-66
2022/12/05 18:19:35;;;;;;;52.53;29.57;;;3.10;99.90;;;;;;5131602;27;20206;-69
2022/12/05 18:22:05;;;;;;;50.63;27.43;;;3.00;99.90;;;;;;5120953;27;20208;-66
2022/12/05 18:24:34;;;;;;;65.93;33.47;;;3.00;99.90;;;;;;5132603;27;20199;-67
2022/12/05 18:27:02;;;;;;;58.80;30.63;;;3.00;99.90;;;;;;5132707;27;20199;-69
2022/12/05 18:29:30;;;;;;;54.10;30.77;;;3.10;99.90;;;;;;5132678;27;20227;-67
2022/12/05 18:31:59;;;;;;;56.77;30.30;;;3.10;99.90;;;;;;5132386;27;20199;-66
2022/12/05 18:34:27;;;;;;;60.00;31.97;;;3.20;99.90;;;;;;5131866;27;20309;-68
2022/12/05 18:36:56;;;;;;;51.53;30.47;;;3.30;99.90;;;;;;5132434;27;20547;-67
2022/12/05 18:39:26;;;;;;;50.03;28.80;;;3.30;99.90;;;;;;5113007;27;20210;-66
2022/12/05 18:41:54;;;;;;;51.20;26.43;;;3.30;99.90;;;;;;5120621;27;20674;-67
2022/12/05 18:44:22;;;;;;;52.83;28.03;;;3.30;99.90;;;;;;5129336;27;20199;-66
2022/12/05 18:46:51;;;;;;;49.13;26.80;;;3.20;99.90;;;;;;5132186;27;20204;-66
2022/12/05 18:49:19;;;;;;;47.27;25.93;;;3.10;99.90;;;;;;5131668;27;20226;-66
2022/12/05 18:51:48;;;;;;;53.37;28.47;;;3.10;99.90;;;;;;5130654;27;20199;-65
2022/12/05 18:54:16;;;;;;;52.77;27.97;;;3.20;99.90;;;;;;5130060;27;20606;-66
2022/12/05 18:56:49;;;;;;;61.30;32.73;;;3.10;99.90;;;;;;5131824;27;20193;-67
2022/12/05 18:59:19;;;;;;;55.30;29.73;;;3.20;99.90;;;;;;5132131;27;20684;-67
2022/12/05 19:01:48;;;;;;;51.33;27.13;;;3.20;99.90;;;;;;5132107;27;20202;-67
2022/12/05 19:04:18;;;;;;;62.87;31.27;;;3.10;99.90;;;;;;5131339;28;20223;-66
2022/12/05 19:06:50;;;;;;;52.70;28.67;;;3.00;99.90;;;;;;5132243;28;20244;-65
2022/12/05 19:09:20;;;;;;;77.20;39.17;;;3.10;99.90;;;;;;5113773;28;20234;-66
2022/12/05 19:11:53;;;;;;;55.00;27.67;;;3.20;99.90;;;;;;5132187;28;20195;-66
2022/12/05 19:14:22;;;;;;;53.47;28.47;;;3.20;99.90;;;;;;5131968;28;20211;-66
2022/12/05 19:16:51;;;;;;;65.73;32.47;;;3.10;99.90;;;;;;5132115;28;20200;-66
2022/12/05 19:19:27;;;;;;;56.13;27.93;;;3.30;99.90;;;;;;5131776;28;20195;-66
2022/12/05 19:21:57;;;;;;;54.67;26.77;;;3.10;99.90;;;;;;5144990;27;20204;-65
2022/12/05 19:24:26;;;;;;;59.83;29.53;;;3.00;99.90;;;;;;5150685;27;20616;-66
2022/12/05 19:26:55;;;;;;;85.13;42.63;;;3.10;99.90;;;;;;5138144;27;20598;-65
2022/12/05 19:29:24;;;;;;;79.30;40.03;;;3.20;99.90;;;;;;5136647;27;20330;-65
2022/12/05 19:31:52;;;;;;;54.97;30.07;;;3.30;99.90;;;;;;5135344;27;20226;-65
2022/12/05 19:34:21;;;;;;;57.37;31.03;;;3.40;99.90;;;;;;5111274;28;20216;-66
2022/12/05 19:36:49;;;;;;;74.90;38.13;;;3.40;99.90;;;;;;5111588;28;20245;-71
2022/12/05 19:39:19;;;;;;;80.80;38.90;;;3.40;99.90;;;;;;5111233;28;20673;-71
2022/12/05 19:41:48;;;;;;;84.57;39.60;;;3.40;99.90;;;;;;5116737;28;20235;-76
2022/12/05 19:44:18;;;;;;;65.10;33.60;;;3.40;99.90;;;;;;5131663;28;20195;-79
2022/12/05 19:46:48;;;;;;;90.17;42.53;;;3.50;99.90;;;;;;5131421;28;20201;-80
2022/12/05 19:49:17;;;;;;;83.50;39.70;;;3.50;99.90;;;;;;5131831;28;20206;-65
2022/12/05 19:51:47;;;;;;;82.17;40.10;;;3.50;99.90;;;;;;5131734;28;20606;-66
2022/12/05 19:54:18;;;;;;;77.07;41.47;;;3.50;99.90;;;;;;5131494;28;20226;-67
2022/12/05 19:56:46;;;;;;;75.47;38.57;;;3.60;99.90;;;;;;5131402;28;20200;-68
2022/12/05 19:59:17;;;;;;;75.63;37.27;;;3.60;99.90;;;;;;5131841;28;20235;-65
2022/12/05 20:01:45;;;;;;;119.93;58.27;;;3.70;99.90;;;;;;5131222;28;20663;-65
2022/12/05 20:04:16;;;;;;;102.93;49.87;;;3.70;99.90;;;;;;5131306;28;20226;-65
2022/12/05 20:06:46;;;;;;;96.83;45.93;;;3.70;99.90;;;;;;5131776;28;20207;-65
2022/12/05 20:09:16;;;;;;;78.50;41.07;;;3.80;99.90;;;;;;5131360;28;20204;-68
2022/12/05 20:11:47;;;;;;;81.40;43.00;;;3.70;99.90;;;;;;5133772;27;20206;-64
2022/12/05 20:14:23;;;;;;;91.07;44.37;;;3.70;99.90;;;;;;5135056;27;20197;-69
2022/12/05 20:16:53;;;;;;;84.03;41.20;;;3.60;99.90;;;;;;5134657;27;20313;-75
2022/12/05 20:19:22;;;;;;;92.70;45.83;;;3.60;99.90;;;;;;5134993;27;20208;-78
2022/12/05 20:21:50;;;;;;;107.43;50.47;;;3.60;99.90;;;;;;5135526;27;20198;-76